createdAt,value
2018-05-12T00:00:06.949Z,14.60
2018-05-12T00:02:34.416Z,14.70
2018-05-12T00:05:01.873Z,14.60
2018-05-12T00:07:30.134Z,14.70
2018-05-12T00:09:57.545Z,14.70
2018-05-12T00:12:25.005Z,14.90
2018-05-12T00:14:52.547Z,14.90
2018-05-12T00:17:20.693Z,14.90
2018-05-12T00:19:48.140Z,14.90
2018-05-12T00:22:15.603Z,14.90
2018-05-12T00:24:43.066Z,14.80
2018-05-12T00:27:10.525Z,14.70
2018-05-12T00:29:38.740Z,14.50
2018-05-12T00:32:06.208Z,14.50
2018-05-12T00:34:33.661Z,14.40
2018-05-12T00:37:01.125Z,14.30
2018-05-12T00:39:28.577Z,14.30
2018-05-12T00:41:56.849Z,14.30
2018-05-12T00:44:24.300Z,14.30
2018-05-12T00:46:51.760Z,14.20
2018-05-12T00:49:19.220Z,14.30
2018-05-12T00:51:46.676Z,14.30
2018-05-12T00:54:14.137Z,14.20
2018-05-12T00:56:41.592Z,14.20
2018-05-12T00:59:09.052Z,14.30
2018-05-12T01:01:37.267Z,14.30
2018-05-12T01:04:04.736Z,14.30
2018-05-12T01:06:32.245Z,14.20
2018-05-12T01:08:59.704Z,14.20
2018-05-12T01:11:27.161Z,14.30
2018-05-12T01:13:54.621Z,14.20
2018-05-12T01:16:22.096Z,14.10
2018-05-12T01:18:49.553Z,14.10
2018-05-12T01:21:17.049Z,14.20
2018-05-12T01:23:44.463Z,14.20
2018-05-12T01:26:12.683Z,14.40
2018-05-12T01:28:40.144Z,14.30
2018-05-12T01:31:07.595Z,14.40
2018-05-12T01:33:35.073Z,14.30
2018-05-12T01:36:02.520Z,14.50
2018-05-12T01:38:30.973Z,14.50
2018-05-12T01:40:58.563Z,14.50
2018-05-12T01:43:26.013Z,14.40
2018-05-12T01:45:53.492Z,14.30
2018-05-12T01:48:20.940Z,14.30
2018-05-12T01:50:48.401Z,14.00
2018-05-12T01:53:15.866Z,13.90
2018-05-12T01:55:43.332Z,13.80
2018-05-12T01:58:10.776Z,13.80
2018-05-12T02:00:38.241Z,13.90
2018-05-12T02:03:06.469Z,13.80
2018-05-12T02:05:33.921Z,13.80
2018-05-12T02:08:01.436Z,13.80
2018-05-12T02:10:28.903Z,13.80
2018-05-12T02:12:56.356Z,13.90
2018-05-12T02:15:23.816Z,13.80
2018-05-12T02:17:51.384Z,13.70
2018-05-12T02:20:18.845Z,13.60
2018-05-12T02:22:46.296Z,13.60
2018-05-12T02:25:13.757Z,13.50
2018-05-12T02:27:41.220Z,13.50
2018-05-12T02:30:09.460Z,13.40
2018-05-12T02:32:36.916Z,13.40
2018-05-12T02:35:04.364Z,13.40
2018-05-12T02:37:31.831Z,13.50
2018-05-12T02:39:59.291Z,13.60
2018-05-12T02:42:26.749Z,13.60
2018-05-12T02:44:54.979Z,13.60
2018-05-12T02:47:22.440Z,13.60
2018-05-12T02:49:49.880Z,13.60
2018-05-12T02:52:17.345Z,13.70
2018-05-12T02:54:45.560Z,13.70
2018-05-12T02:57:13.029Z,13.70
2018-05-12T02:59:40.483Z,13.80
2018-05-12T03:02:07.935Z,13.80
2018-05-12T03:04:36.157Z,13.90
2018-05-12T03:07:03.625Z,13.90
2018-05-12T03:09:31.086Z,13.90
2018-05-12T03:11:58.552Z,13.90
2018-05-12T03:14:26.037Z,13.90
2018-05-12T03:16:53.460Z,13.90
2018-05-12T03:19:21.681Z,13.70
2018-05-12T03:21:49.138Z,13.70
2018-05-12T03:24:16.601Z,13.70
2018-05-12T03:26:44.046Z,13.70
2018-05-12T03:29:11.491Z,13.60
2018-05-12T03:31:38.960Z,13.60
2018-05-12T03:34:06.413Z,13.60
2018-05-12T03:36:33.866Z,13.60
2018-05-12T03:39:01.320Z,13.60
2018-05-12T03:41:28.777Z,13.60
2018-05-12T03:43:56.244Z,13.50
2018-05-12T03:46:24.451Z,13.60
2018-05-12T03:48:51.917Z,13.60
2018-05-12T03:51:19.359Z,13.60
2018-05-12T03:53:47.584Z,13.50
2018-05-12T03:56:15.032Z,13.40
2018-05-12T03:58:42.516Z,13.40
2018-05-12T04:01:09.969Z,13.40
2018-05-12T04:03:37.440Z,13.30
2018-05-12T04:06:16.965Z,13.30
2018-05-12T04:08:57.943Z,13.30
2018-05-12T04:11:37.356Z,13.30
2018-05-12T04:14:04.815Z,13.40
2018-05-12T04:16:32.263Z,13.50
2018-05-12T04:18:59.738Z,13.50
2018-05-12T04:21:27.197Z,13.50
2018-05-12T04:23:55.415Z,13.40
2018-05-12T04:26:22.937Z,13.40
2018-05-12T04:28:50.380Z,13.60
2018-05-12T04:31:17.843Z,13.70
2018-05-12T04:33:45.387Z,13.70
2018-05-12T04:36:12.847Z,13.70
2018-05-12T04:38:40.294Z,13.60
2018-05-12T04:41:08.529Z,13.80
2018-05-12T04:43:35.979Z,13.80
2018-05-12T04:46:03.431Z,13.90
2018-05-12T04:48:30.892Z,13.80
2018-05-12T04:50:59.116Z,13.80
2018-05-12T04:53:26.570Z,13.80
2018-05-12T04:55:54.029Z,13.70
2018-05-12T04:58:21.471Z,13.70
2018-05-12T05:00:49.696Z,13.80
2018-05-12T05:03:17.154Z,13.80
2018-05-12T05:05:44.631Z,13.90
2018-05-12T05:08:12.116Z,13.90
2018-05-12T05:10:40.297Z,13.80
2018-05-12T05:13:07.748Z,13.80
2018-05-12T05:15:35.204Z,13.90
2018-05-12T05:18:03.429Z,13.90
2018-05-12T05:20:30.887Z,13.90
2018-05-12T05:22:58.352Z,14.00
2018-05-12T05:25:25.789Z,14.10
2018-05-12T05:27:54.039Z,14.00
2018-05-12T05:30:21.508Z,14.10
2018-05-12T05:32:48.975Z,14.10
2018-05-12T05:35:16.550Z,14.20
2018-05-12T05:37:43.988Z,14.30
2018-05-12T05:40:11.432Z,14.30
2018-05-12T05:42:38.897Z,14.40
2018-05-12T05:45:07.113Z,14.50
2018-05-12T05:47:34.572Z,14.50
2018-05-12T05:50:02.021Z,14.50
2018-05-12T05:52:29.492Z,14.60
2018-05-12T05:54:57.707Z,14.60
2018-05-12T05:57:25.176Z,14.60
2018-05-12T05:59:52.625Z,14.60
2018-05-12T06:02:20.084Z,14.70
2018-05-12T06:04:48.309Z,14.70
2018-05-12T06:07:15.878Z,14.70
2018-05-12T06:09:43.229Z,14.80
2018-05-12T06:12:10.694Z,14.90
2018-05-12T06:14:38.153Z,14.90
2018-05-12T06:17:05.642Z,15.00
2018-05-12T06:19:33.109Z,15.00
2018-05-12T06:22:00.560Z,15.10
2018-05-12T06:24:28.018Z,15.20
2018-05-12T06:26:56.235Z,15.30
2018-05-12T06:29:23.705Z,15.20
2018-05-12T06:31:51.155Z,15.30
2018-05-12T06:34:18.621Z,15.40
2018-05-12T06:36:46.064Z,15.40
2018-05-12T06:39:13.528Z,15.40
2018-05-12T06:41:40.980Z,15.50
2018-05-12T06:44:08.524Z,15.50
2018-05-12T06:46:35.968Z,15.60
2018-05-12T06:49:03.437Z,15.70
2018-05-12T06:51:30.893Z,15.70
2018-05-12T06:53:59.132Z,15.90
2018-05-12T06:56:26.584Z,15.90
2018-05-12T06:58:54.046Z,16.00
2018-05-12T07:01:21.537Z,16.00
2018-05-12T07:03:48.961Z,16.10
2018-05-12T07:06:17.191Z,16.20
2018-05-12T07:08:44.640Z,16.10
2018-05-12T07:11:12.106Z,16.30
2018-05-12T07:13:39.556Z,16.30
2018-05-12T07:16:07.786Z,16.40
2018-05-12T07:18:35.223Z,16.30
2018-05-12T07:21:02.689Z,16.40
2018-05-12T07:23:30.133Z,16.40
2018-05-12T07:25:58.359Z,16.60
2018-05-12T07:28:25.807Z,16.60
2018-05-12T07:30:53.272Z,16.80
2018-05-12T07:33:20.735Z,16.90
2018-05-12T07:35:48.969Z,17.30
2018-05-12T07:38:16.421Z,17.30
2018-05-12T07:40:43.880Z,17.30
2018-05-12T07:43:11.340Z,17.40
2018-05-12T07:45:39.562Z,17.70
2018-05-12T07:48:07.007Z,17.70
2018-05-12T07:50:34.465Z,17.90
2018-05-12T07:53:01.922Z,18.10
2018-05-12T07:55:30.144Z,18.50
2018-05-12T07:57:57.594Z,18.50
2018-05-12T08:00:25.048Z,18.80
2018-05-12T08:02:53.280Z,19.00
2018-05-12T08:05:20.735Z,19.00
2018-05-12T08:07:48.196Z,19.20
2018-05-12T08:10:15.678Z,19.20
2018-05-12T08:12:43.143Z,19.20
2018-05-12T08:15:10.581Z,19.40
2018-05-12T08:17:38.796Z,19.50
2018-05-12T08:20:06.250Z,19.50
2018-05-12T08:22:33.706Z,19.50
2018-05-12T08:25:01.923Z,19.70
2018-05-12T08:27:29.388Z,19.60
2018-05-12T08:29:56.856Z,19.80
2018-05-12T08:32:24.343Z,19.90
2018-05-12T08:34:51.784Z,20.00
2018-05-12T08:37:19.261Z,19.90
2018-05-12T08:39:46.721Z,19.90
2018-05-12T08:42:14.189Z,20.00
2018-05-12T08:44:41.650Z,20.10
2018-05-12T08:47:09.104Z,20.10
2018-05-12T08:49:37.327Z,20.30
2018-05-12T08:52:04.779Z,20.30
2018-05-12T08:54:32.232Z,20.30
2018-05-12T08:57:00.464Z,20.60
2018-05-12T08:59:27.927Z,20.50
2018-05-12T09:01:55.385Z,20.80
2018-05-12T09:04:22.827Z,21.00
2018-05-12T09:06:51.057Z,21.40
2018-05-12T09:09:18.504Z,21.30
2018-05-12T09:11:45.969Z,21.60
2018-05-12T09:14:13.429Z,21.70
2018-05-12T09:16:41.660Z,21.90
2018-05-12T09:19:09.113Z,21.80
2018-05-12T09:21:36.574Z,22.00
2018-05-12T09:24:04.021Z,22.10
2018-05-12T09:26:31.484Z,22.20
2018-05-12T09:28:59.705Z,22.50
2018-05-12T09:31:27.168Z,22.50
2018-05-12T09:33:54.624Z,22.70
2018-05-12T09:36:22.091Z,22.90
2018-05-12T09:38:50.291Z,23.30
2018-05-12T09:41:17.776Z,23.30
2018-05-12T09:43:45.233Z,23.50
2018-05-12T09:46:12.696Z,23.70
2018-05-12T09:48:40.144Z,24.10
2018-05-12T09:51:07.604Z,24.30
2018-05-12T09:53:35.825Z,25.00
2018-05-12T09:56:03.301Z,24.90
2018-05-12T09:58:30.748Z,25.40
2018-05-12T10:00:58.213Z,25.90
2018-05-12T10:03:25.682Z,26.20
2018-05-12T10:05:53.891Z,26.20
2018-05-12T10:08:21.344Z,26.20
2018-05-12T10:10:48.804Z,26.30
2018-05-12T10:13:16.243Z,26.40
2018-05-12T10:15:44.524Z,26.20
2018-05-12T10:18:11.973Z,26.20
2018-05-12T10:20:39.435Z,26.40
2018-05-12T10:23:06.888Z,26.80
2018-05-12T10:25:34.358Z,27.00
2018-05-12T10:28:01.799Z,27.00
2018-05-12T10:30:29.271Z,27.20
2018-05-12T10:32:56.725Z,26.90
2018-05-12T10:35:25.048Z,26.80
2018-05-12T10:37:52.492Z,26.70
2018-05-12T10:40:20.709Z,27.20
2018-05-12T10:42:48.177Z,27.10
2018-05-12T10:45:15.656Z,26.90
2018-05-12T10:47:43.117Z,26.60
2018-05-12T10:50:11.304Z,25.90
2018-05-12T10:52:38.774Z,25.90
2018-05-12T10:55:06.218Z,26.00
2018-05-12T10:57:33.679Z,26.20
2018-05-12T11:00:01.900Z,26.40
2018-05-12T11:02:29.351Z,26.30
2018-05-12T11:04:56.801Z,26.40
2018-05-12T11:07:25.024Z,26.20
2018-05-12T11:09:52.468Z,26.10
2018-05-12T11:12:19.939Z,26.30
2018-05-12T11:14:47.383Z,26.70
2018-05-12T11:17:15.607Z,26.70
2018-05-12T11:19:43.064Z,26.80
2018-05-12T11:22:10.530Z,26.40
2018-05-12T11:24:38.122Z,26.20
2018-05-12T11:27:05.576Z,25.90
2018-05-12T11:29:33.019Z,25.60
2018-05-12T11:32:00.491Z,25.30
2018-05-12T11:34:28.704Z,25.30
2018-05-12T11:36:56.177Z,25.40
2018-05-12T11:39:23.619Z,25.20
2018-05-12T11:41:51.955Z,24.90
2018-05-12T11:44:19.401Z,24.90
2018-05-12T11:46:46.860Z,24.70
2018-05-12T11:49:14.311Z,24.30
2018-05-12T11:51:42.549Z,24.10
2018-05-12T11:54:10.006Z,24.10
2018-05-12T11:56:37.452Z,24.10
2018-05-12T11:59:04.899Z,24.10
2018-05-12T12:01:32.358Z,24.00
2018-05-12T12:03:59.845Z,24.00
2018-05-12T12:06:28.064Z,24.20
2018-05-12T12:08:55.508Z,24.10
2018-05-12T12:11:22.965Z,24.40
2018-05-12T12:13:51.175Z,24.30
2018-05-12T12:16:18.661Z,24.30
2018-05-12T12:18:46.120Z,24.30
2018-05-12T12:21:13.585Z,24.60
2018-05-12T12:23:41.033Z,25.00
2018-05-12T12:26:09.264Z,25.30
2018-05-12T12:28:36.717Z,25.30
2018-05-12T12:31:04.181Z,25.30
2018-05-12T12:33:31.624Z,25.20
2018-05-12T12:35:59.876Z,25.00
2018-05-12T12:38:27.321Z,24.90
2018-05-12T12:40:54.777Z,24.70
2018-05-12T12:43:22.221Z,24.80
2018-05-12T12:45:50.436Z,25.50
2018-05-12T12:48:17.891Z,25.50
2018-05-12T12:50:45.340Z,25.90
2018-05-12T12:53:13.565Z,26.60
2018-05-12T12:55:41.010Z,26.60
2018-05-12T12:58:08.465Z,26.80
2018-05-12T13:00:36.679Z,26.70
2018-05-12T13:03:04.138Z,26.70
2018-05-12T13:05:31.591Z,26.60
2018-05-12T13:07:59.813Z,26.80
2018-05-12T13:10:27.256Z,26.80
2018-05-12T13:12:54.711Z,26.80
2018-05-12T13:15:22.917Z,26.80
2018-05-12T13:17:50.415Z,26.80
2018-05-12T13:20:17.861Z,26.70
2018-05-12T13:22:45.325Z,26.70
2018-05-12T13:25:12.768Z,26.80
2018-05-12T13:27:40.993Z,26.80
2018-05-12T13:30:08.456Z,26.80
2018-05-12T13:32:35.916Z,26.60
2018-05-12T13:35:03.373Z,26.40
2018-05-12T13:37:31.597Z,26.10
2018-05-12T13:39:59.040Z,26.10
2018-05-12T13:42:26.490Z,26.10
2018-05-12T13:44:54.701Z,26.00
2018-05-12T13:47:22.236Z,26.00
2018-05-12T13:49:49.673Z,25.80
2018-05-12T13:52:17.133Z,25.60
2018-05-12T13:54:44.662Z,25.60
2018-05-12T13:57:12.037Z,25.70
2018-05-12T13:59:39.505Z,26.00
2018-05-12T14:02:06.961Z,26.10
2018-05-12T14:04:35.175Z,26.30
2018-05-12T14:07:02.628Z,26.20
2018-05-12T14:09:30.080Z,26.30
2018-05-12T14:11:58.295Z,26.40
2018-05-12T14:14:25.772Z,26.40
2018-05-12T14:16:53.207Z,26.40
2018-05-12T14:19:21.422Z,26.40
2018-05-12T14:21:48.881Z,26.30
2018-05-12T14:24:16.342Z,26.30
2018-05-12T14:26:44.631Z,26.10
2018-05-12T14:29:12.825Z,26.10
2018-05-12T14:31:40.300Z,26.10
2018-05-12T14:34:08.495Z,26.00
2018-05-12T14:36:35.958Z,26.00
2018-05-12T14:39:03.460Z,25.90
2018-05-12T14:41:30.912Z,25.90
2018-05-12T14:43:58.360Z,25.90
2018-05-12T14:46:25.873Z,25.90
2018-05-12T14:48:53.320Z,25.90
2018-05-12T14:51:20.771Z,25.90
2018-05-12T14:53:48.257Z,25.90
2018-05-12T14:56:15.684Z,25.70
2018-05-12T14:58:43.995Z,25.60
2018-05-12T15:01:11.461Z,25.60
2018-05-12T15:03:38.919Z,25.60
2018-05-12T15:06:07.114Z,25.50
2018-05-12T15:08:34.595Z,25.50
2018-05-12T15:11:02.019Z,25.40
2018-05-12T15:13:30.237Z,25.20
2018-05-12T15:15:57.680Z,25.20
2018-05-12T15:18:25.990Z,25.20
2018-05-12T15:20:53.353Z,25.20
2018-05-12T15:23:20.936Z,25.20
2018-05-12T15:25:48.409Z,25.30
2018-05-12T15:28:15.885Z,25.30
2018-05-12T15:30:43.368Z,25.20
2018-05-12T15:33:10.806Z,25.20
2018-05-12T15:35:38.247Z,25.30
2018-05-12T15:38:06.462Z,25.20
2018-05-12T15:40:33.921Z,25.20
2018-05-12T15:43:02.141Z,25.20
2018-05-12T15:45:29.588Z,25.20
2018-05-12T15:47:57.039Z,25.20
2018-05-12T15:50:25.269Z,25.00
2018-05-12T15:52:52.733Z,25.00
2018-05-12T15:55:20.193Z,25.00
2018-05-12T15:57:47.636Z,24.90
2018-05-12T16:00:15.078Z,24.80
2018-05-12T16:02:42.545Z,24.80
2018-05-12T16:05:10.018Z,24.70
2018-05-12T16:07:37.465Z,24.70
2018-05-12T16:10:04.910Z,24.60
2018-05-12T16:12:32.396Z,24.60
2018-05-12T16:14:59.839Z,24.60
2018-05-12T16:17:27.297Z,24.60
2018-05-12T16:19:54.744Z,24.50
2018-05-12T16:22:23.107Z,24.40
2018-05-12T16:24:50.552Z,24.40
2018-05-12T16:27:18.011Z,24.40
2018-05-12T16:29:45.452Z,24.30
2018-05-12T16:32:12.915Z,24.30
2018-05-12T16:34:41.128Z,24.30
2018-05-12T16:37:08.596Z,24.20
2018-05-12T16:39:36.041Z,24.20
2018-05-12T16:42:04.277Z,24.20
2018-05-12T16:44:31.767Z,24.20
2018-05-12T16:46:59.177Z,24.20
2018-05-12T16:49:26.623Z,24.20
2018-05-12T16:51:54.854Z,24.10
2018-05-12T16:54:22.299Z,24.00
2018-05-12T16:56:49.766Z,24.00
2018-05-12T16:59:17.241Z,24.00
2018-05-12T17:01:44.660Z,23.90
2018-05-12T17:04:12.111Z,23.80
2018-05-12T17:06:39.560Z,23.70
2018-05-12T17:09:07.030Z,23.70
2018-05-12T17:11:34.484Z,23.70
2018-05-12T17:14:01.946Z,23.60
2018-05-12T17:16:30.153Z,23.50
2018-05-12T17:18:57.963Z,23.50
2018-05-12T17:21:26.925Z,23.40
2018-05-12T17:23:54.440Z,23.40
2018-05-12T17:26:21.884Z,23.30
2018-05-12T17:28:49.342Z,23.30
2018-05-12T17:31:16.784Z,23.20
2018-05-12T17:33:44.230Z,23.20
2018-05-12T17:36:12.629Z,23.20
2018-05-12T17:38:40.907Z,23.10
2018-05-12T17:41:08.349Z,23.00
2018-05-12T17:43:36.760Z,23.00
2018-05-12T17:46:04.217Z,23.00
2018-05-12T17:48:31.698Z,23.00
2018-05-12T17:50:59.133Z,22.90
2018-05-12T17:53:26.588Z,22.90
2018-05-12T17:55:54.033Z,22.80
2018-05-12T17:58:22.447Z,22.80
2018-05-12T18:00:49.895Z,22.70
2018-05-12T18:03:18.120Z,22.70
2018-05-12T18:05:45.564Z,22.70
2018-05-12T18:08:13.019Z,22.60
2018-05-12T18:10:41.228Z,22.60
2018-05-12T18:13:08.805Z,22.50
2018-05-12T18:15:36.258Z,22.50
2018-05-12T18:18:03.703Z,22.50
2018-05-12T18:20:31.907Z,22.50
2018-05-12T18:23:00.129Z,22.40
2018-05-12T18:25:27.808Z,22.40
2018-05-12T18:27:55.265Z,22.40
2018-05-12T18:30:22.710Z,22.40
2018-05-12T18:32:50.158Z,22.40
2018-05-12T18:35:29.871Z,22.30
2018-05-12T18:37:58.092Z,22.20
2018-05-12T18:40:25.553Z,22.20
2018-05-12T18:42:53.000Z,22.20
2018-05-12T18:45:21.217Z,22.10
2018-05-12T18:47:48.705Z,22.10
2018-05-12T18:50:16.151Z,22.10
2018-05-12T18:52:43.605Z,22.10
2018-05-12T18:55:11.817Z,22.00
2018-05-12T18:57:39.301Z,22.00
2018-05-12T19:00:06.735Z,22.00
2018-05-12T19:02:34.224Z,21.90
2018-05-12T19:05:01.668Z,22.10
2018-05-12T19:07:29.897Z,21.90
2018-05-12T19:09:57.344Z,21.90
2018-05-12T19:12:24.810Z,21.80
2018-05-12T19:14:52.251Z,21.80
2018-05-12T19:17:19.725Z,21.70
2018-05-12T19:19:47.969Z,21.60
2018-05-12T19:22:15.401Z,21.60
2018-05-12T19:24:42.861Z,21.60
2018-05-12T19:27:11.066Z,21.60
2018-05-12T19:29:38.537Z,21.60
2018-05-12T19:32:05.994Z,21.60
2018-05-12T19:34:33.455Z,21.60
2018-05-12T19:37:01.674Z,21.50
2018-05-12T19:39:29.126Z,21.50
2018-05-12T19:41:56.572Z,21.50
2018-05-12T19:44:24.792Z,21.50
2018-05-12T19:46:52.244Z,21.50
2018-05-12T19:49:19.693Z,21.50
2018-05-12T19:51:48.008Z,21.50
2018-05-12T19:54:15.473Z,21.50
2018-05-12T19:56:42.920Z,21.50
2018-05-12T19:59:11.146Z,21.50
2018-05-12T20:01:38.597Z,21.50
2018-05-12T20:04:06.065Z,21.50
2018-05-12T20:06:33.552Z,21.50
2018-05-12T20:09:01.015Z,21.50
2018-05-12T20:11:28.465Z,21.50
2018-05-12T20:13:55.946Z,21.50
2018-05-12T20:16:23.372Z,21.40
2018-05-12T20:18:50.819Z,21.40
2018-05-12T20:21:18.263Z,21.40
2018-05-12T20:23:45.866Z,21.30
2018-05-12T20:26:13.306Z,21.30
2018-05-12T20:28:40.760Z,21.20
2018-05-12T20:31:08.271Z,21.20
2018-05-12T20:33:36.437Z,21.10
2018-05-12T20:36:03.884Z,21.10
2018-05-12T20:38:31.335Z,21.00
2018-05-12T20:40:58.785Z,20.90
2018-05-12T20:43:26.999Z,20.90
2018-05-12T20:45:55.351Z,20.80
2018-05-12T20:48:22.808Z,20.80
2018-05-12T20:50:50.257Z,20.70
2018-05-12T20:53:17.725Z,20.70
2018-05-12T20:55:45.180Z,20.60
2018-05-12T20:58:12.641Z,20.60
2018-05-12T21:00:40.085Z,20.60
2018-05-12T21:03:08.347Z,20.50
2018-05-12T21:05:35.824Z,20.50
2018-05-12T21:08:03.285Z,20.40
2018-05-12T21:10:30.728Z,20.40
2018-05-12T21:12:58.178Z,20.40
2018-05-12T21:15:25.624Z,20.40
2018-05-12T21:17:53.101Z,20.30
2018-05-12T22:06:12.564Z,20.20
2018-05-12T22:08:40.004Z,19.40
2018-05-12T22:11:07.465Z,19.40
2018-05-12T22:13:34.908Z,19.40
2018-05-12T22:16:02.373Z,19.40
2018-05-12T22:18:29.818Z,19.40
2018-05-12T22:20:57.280Z,19.50
2018-05-12T22:23:24.720Z,19.50
2018-05-12T22:25:52.175Z,19.80
2018-05-12T22:28:19.629Z,19.80
2018-05-12T22:30:47.093Z,19.70
2018-05-12T22:33:14.548Z,19.60
2018-05-12T22:35:42.768Z,19.40
2018-05-12T22:38:10.229Z,19.40
2018-05-12T22:40:37.691Z,19.30
2018-05-12T22:43:05.130Z,19.20
2018-05-12T22:45:33.358Z,19.30
2018-05-12T22:48:00.856Z,19.30
2018-05-12T22:50:28.295Z,19.30
2018-05-12T22:52:55.744Z,19.50
2018-05-12T22:55:23.960Z,19.50
2018-05-12T22:57:51.425Z,19.50
2018-05-12T23:00:19.599Z,19.40
2018-05-12T23:02:47.066Z,19.30
2018-05-12T23:05:14.525Z,19.20
2018-05-12T23:07:41.983Z,19.30
2018-05-12T23:10:10.275Z,19.10
2018-05-12T23:12:37.668Z,19.10
2018-05-12T23:15:05.127Z,18.90
2018-05-12T23:17:32.584Z,18.90
2018-05-12T23:20:00.032Z,18.90
2018-05-12T23:22:27.512Z,19.00
2018-05-12T23:24:54.958Z,19.00
2018-05-12T23:27:22.407Z,19.00
2018-05-12T23:29:49.856Z,18.90
2018-05-12T23:32:17.319Z,18.80
2018-05-12T23:34:44.767Z,18.80
2018-05-12T23:37:12.211Z,18.90
2018-05-12T23:39:39.663Z,19.00
2018-05-12T23:42:07.885Z,18.90
2018-05-12T23:44:36.107Z,18.90
2018-05-12T23:47:03.553Z,18.90
2018-05-12T23:49:31.012Z,18.90
2018-05-12T23:51:58.469Z,18.90
2018-05-12T23:54:26.700Z,18.90
2018-05-12T23:56:54.157Z,18.90
2018-05-12T23:59:21.615Z,18.80
